Time;durP1;ratioP1;P1;durP2;ratioP2;P2;SDS_P1;SDS_P2;PMS_P1;PMS_P2;Temp;Humidity;BMP_temperature;BMP_pressure;BME280_temperature;BME280_humidity;BME280_pressure;Samples;Min_cycle;Max_cycle;Signal;HPM_P1;HPM_P2
2021/11/30 00:01:24;;;;;;;3.25;0.90;;;16.60;48.40;;;;;;5037052;28;20099;-60
2021/11/30 00:03:52;;;;;;;2.67;1.23;;;16.60;48.40;;;;;;5003910;28;20469;-60
2021/11/30 00:06:18;;;;;;;2.60;1.13;;;16.60;48.40;;;;;;5036605;28;20520;-60
2021/11/30 00:08:47;;;;;;;2.45;1.23;;;16.60;48.40;;;;;;5037075;28;20014;-61
2021/11/30 00:11:14;;;;;;;2.22;1.08;;;16.60;48.60;;;;;;5036822;28;20503;-60
2021/11/30 00:13:40;;;;;;;2.72;1.10;;;16.60;48.30;;;;;;5036359;28;20016;-60
2021/11/30 00:16:05;;;;;;;2.60;1.23;;;16.60;48.30;;;;;;5035894;28;20040;-61
2021/11/30 00:18:33;;;;;;;2.40;1.33;;;16.60;48.30;;;;;;5036182;28;20021;-60
2021/11/30 00:21:05;;;;;;;2.97;1.30;;;16.60;48.30;;;;;;5035609;28;20029;-60
2021/11/30 00:23:31;;;;;;;2.25;1.17;;;16.60;48.20;;;;;;5035736;28;20010;-60
2021/11/30 00:25:57;;;;;;;3.42;1.17;;;16.60;48.30;;;;;;5017804;28;20121;-60
2021/11/30 00:28:23;;;;;;;2.00;0.90;;;16.60;48.20;;;;;;5035380;28;20029;-58
2021/11/30 00:30:50;;;;;;;3.05;1.25;;;16.50;48.10;;;;;;5035275;28;20026;-58
2021/11/30 00:33:16;;;;;;;2.63;1.10;;;16.50;48.00;;;;;;5018069;28;20488;-58
2021/11/30 00:35:43;;;;;;;1.88;0.98;;;16.50;48.00;;;;;;5035829;28;20064;-59
2021/11/30 00:38:13;;;;;;;2.08;0.98;;;16.50;48.10;;;;;;5035299;28;20369;-59
2021/11/30 00:40:40;;;;;;;1.83;1.00;;;16.50;48.00;;;;;;5035900;28;20051;-58
2021/11/30 00:43:06;;;;;;;1.80;1.13;;;16.50;48.00;;;;;;5035255;28;20020;-58
2021/11/30 00:45:51;;;;;;;3.63;1.27;;;16.50;47.90;;;;;;5034839;28;20028;-63
2021/11/30 00:48:21;;;;;;;1.60;0.95;;;16.50;48.00;;;;;;5021025;28;20022;-58
2021/11/30 00:50:47;;;;;;;1.33;0.90;;;16.50;48.00;;;;;;5036024;28;20029;-58
2021/11/30 00:53:13;;;;;;;2.17;1.25;;;16.50;47.90;;;;;;5035694;28;20370;-58
2021/11/30 00:55:39;;;;;;;1.85;1.05;;;16.50;47.90;;;;;;5017722;28;20009;-58
2021/11/30 00:58:05;;;;;;;2.20;1.10;;;16.50;47.90;;;;;;5035379;28;20022;-61
2021/11/30 01:00:35;;;;;;;1.60;1.05;;;16.50;47.90;;;;;;5034874;28;20544;-58
2021/11/30 01:03:02;;;;;;;1.67;1.10;;;16.50;47.90;;;;;;5034702;28;20016;-57
2021/11/30 01:05:30;;;;;;;1.35;0.85;;;16.50;47.90;;;;;;5034658;28;20088;-58
2021/11/30 01:07:57;;;;;;;1.42;0.95;;;16.50;47.80;;;;;;5035278;28;20017;-62
2021/11/30 01:10:23;;;;;;;2.30;1.08;;;16.50;47.80;;;;;;5017876;28;20030;-58
2021/11/30 01:12:49;;;;;;;1.88;1.15;;;16.40;47.80;;;;;;5017358;28;20060;-58
2021/11/30 01:15:16;;;;;;;4.20;1.20;;;16.40;47.80;;;;;;5035164;28;20010;-58
2021/11/30 01:17:43;;;;;;;2.25;1.00;;;16.40;47.80;;;;;;5034735;28;20060;-58
2021/11/30 01:20:09;;;;;;;1.45;0.98;;;16.40;47.70;;;;;;5034281;28;20120;-58
2021/11/30 01:22:35;;;;;;;1.73;1.00;;;16.40;47.70;;;;;;5016912;28;20109;-59
2021/11/30 01:25:01;;;;;;;3.33;1.17;;;16.40;47.70;;;;;;5033652;28;20052;-58
2021/11/30 01:27:28;;;;;;;2.08;0.95;;;16.40;47.60;;;;;;5016711;28;20018;-57
2021/11/30 01:29:53;;;;;;;1.95;1.00;;;16.40;47.60;;;;;;5034442;28;20530;-58
2021/11/30 01:32:20;;;;;;;2.53;0.95;;;16.40;47.60;;;;;;5034653;28;20029;-58
2021/11/30 01:34:47;;;;;;;1.30;0.95;;;16.40;47.60;;;;;;5034622;28;20048;-58
2021/11/30 01:37:16;;;;;;;1.67;1.00;;;16.40;47.60;;;;;;5034531;28;20022;-60
2021/11/30 01:39:43;;;;;;;2.35;1.00;;;16.40;47.60;;;;;;5034166;28;20014;-58
2021/11/30 01:42:11;;;;;;;1.98;1.00;;;16.40;47.60;;;;;;5034283;28;20072;-57
2021/11/30 01:44:46;;;;;;;1.40;0.90;;;16.30;47.50;;;;;;5034434;28;20025;-58
2021/11/30 01:49:57;;;;;;;2.85;1.00;;;16.30;47.40;;;;;;5034273;28;20021;-59
2021/11/30 01:52:23;;;;;;;1.73;0.88;;;16.30;47.40;;;;;;5034574;28;20025;-59
2021/11/30 01:54:51;;;;;;;1.70;0.80;;;16.40;47.40;;;;;;5034493;28;20014;-58
2021/11/30 01:57:18;;;;;;;0.95;0.85;;;16.30;47.40;;;;;;5034403;28;20010;-59
2021/11/30 01:59:44;;;;;;;1.13;0.82;;;16.30;47.40;;;;;;5034252;28;20496;-58
2021/11/30 02:02:11;;;;;;;1.38;0.80;;;16.30;47.40;;;;;;5034274;28;20049;-59
2021/11/30 02:04:37;;;;;;;1.83;0.80;;;16.30;47.40;;;;;;5033985;28;20056;-58
2021/11/30 02:07:03;;;;;;;2.58;1.23;;;16.30;47.30;;;;;;5034330;28;20116;-58
2021/11/30 02:09:30;;;;;;;1.95;1.15;;;16.30;47.30;;;;;;5034343;28;20021;-58
2021/11/30 02:11:57;;;;;;;1.33;0.85;;;16.30;47.30;;;;;;5034200;28;20040;-59
2021/11/30 02:14:24;;;;;;;1.08;0.80;;;16.30;47.30;;;;;;5016555;28;20029;-59
2021/11/30 02:16:50;;;;;;;1.60;1.00;;;16.30;47.30;;;;;;5033770;28;20017;-59
2021/11/30 02:19:16;;;;;;;1.67;0.82;;;16.30;47.30;;;;;;5033479;28;20354;-58
2021/11/30 02:21:43;;;;;;;3.05;1.10;;;16.30;47.20;;;;;;5033947;28;20052;-59
2021/11/30 02:24:10;;;;;;;1.42;0.80;;;16.30;47.20;;;;;;5033960;28;20025;-58
2021/11/30 02:26:37;;;;;;;2.38;0.80;;;16.30;47.30;;;;;;5033526;28;20516;-59
2021/11/30 02:29:04;;;;;;;1.92;0.93;;;16.30;47.30;;;;;;5034382;28;20024;-58
2021/11/30 02:31:32;;;;;;;2.25;0.80;;;16.30;47.20;;;;;;5034134;28;20026;-58
2021/11/30 02:33:57;;;;;;;0.80;0.60;;;16.30;47.20;;;;;;4999430;28;20016;-59
2021/11/30 02:36:38;;;;;;;2.70;0.88;;;16.30;47.20;;;;;;5033498;28;20520;-59
2021/11/30 02:39:05;;;;;;;1.48;0.80;;;16.30;47.20;;;;;;5035527;28;20422;-58
2021/11/30 02:41:32;;;;;;;1.77;0.73;;;16.30;47.20;;;;;;5033991;28;20010;-59
2021/11/30 02:43:58;;;;;;;1.42;0.68;;;16.20;47.10;;;;;;5033472;28;20037;-59
2021/11/30 02:46:39;;;;;;;2.42;1.30;;;16.30;47.20;;;;;;5033724;28;20049;-59
2021/11/30 02:49:06;;;;;;;;;;;16.30;47.20;;;;;;5035296;28;20466;-59
2021/11/30 02:51:33;;;;;;;2.33;1.00;;;16.30;47.10;;;;;;5033018;28;19916;-58
2021/11/30 02:54:02;;;;;;;1.20;0.68;;;16.30;47.20;;;;;;5033384;28;20041;-58
2021/11/30 02:56:28;;;;;;;1.83;0.73;;;16.20;47.10;;;;;;5034026;28;20462;-59
2021/11/30 02:58:55;;;;;;;1.83;1.08;;;16.20;47.10;;;;;;5033336;28;20018;-59
2021/11/30 03:01:21;;;;;;;1.70;0.80;;;16.20;47.20;;;;;;5015824;28;20092;-60
2021/11/30 03:03:48;;;;;;;2.20;1.13;;;16.20;47.10;;;;;;5032932;28;20022;-59
2021/11/30 03:06:14;;;;;;;1.80;0.90;;;16.20;47.20;;;;;;5032691;28;20045;-59
2021/11/30 03:08:40;;;;;;;2.35;1.17;;;16.20;47.70;;;;;;5033168;28;20497;-58
2021/11/30 03:11:08;;;;;;;1.85;1.00;;;16.20;47.10;;;;;;5033535;28;20497;-59
2021/11/30 03:13:34;;;;;;;4.20;1.27;;;16.20;47.10;;;;;;5032915;28;20489;-59
2021/11/30 03:16:00;;;;;;;1.38;0.90;;;16.20;47.10;;;;;;5034054;28;20021;-59
2021/11/30 03:18:27;;;;;;;1.45;0.80;;;16.20;47.00;;;;;;5033680;28;20462;-58
2021/11/30 03:20:54;;;;;;;1.90;0.80;;;16.30;46.90;;;;;;5017691;28;20493;-59
2021/11/30 03:23:20;;;;;;;1.50;0.90;;;16.40;46.60;;;;;;5033581;28;20022;-59
2021/11/30 03:25:47;;;;;;;1.92;0.90;;;16.50;46.20;;;;;;5033761;28;20036;-59
2021/11/30 03:28:13;;;;;;;1.50;0.80;;;16.60;46.10;;;;;;5033361;28;20027;-59
2021/11/30 03:30:52;;;;;;;0.85;0.57;;;16.60;45.90;;;;;;5016476;28;20009;-59
2021/11/30 03:36:05;;;;;;;0.80;0.45;;;16.70;45.80;;;;;;5033676;28;20093;-60
2021/11/30 03:38:31;;;;;;;1.58;0.60;;;16.80;45.50;;;;;;5033066;28;20052;-58
2021/11/30 03:41:00;;;;;;;1.60;0.85;;;16.90;45.40;;;;;;5032928;28;20075;-59
2021/11/30 03:43:26;;;;;;;2.45;0.82;;;17.00;45.30;;;;;;5032616;28;20014;-59
2021/11/30 03:45:52;;;;;;;2.70;0.73;;;17.10;45.10;;;;;;5032542;28;20101;-59
2021/11/30 03:48:19;;;;;;;0.93;0.50;;;17.20;44.90;;;;;;5033785;28;20036;-59
2021/11/30 03:50:45;;;;;;;1.10;0.77;;;17.30;44.70;;;;;;5036035;28;20060;-58
2021/11/30 03:53:11;;;;;;;1.15;0.88;;;17.30;44.50;;;;;;5036128;28;20030;-59
2021/11/30 03:55:38;;;;;;;1.30;0.70;;;17.40;44.30;;;;;;5036173;28;20014;-59
2021/11/30 03:58:03;;;;;;;1.15;0.68;;;17.50;44.10;;;;;;5018188;28;20018;-58
2021/11/30 04:00:29;;;;;;;1.45;0.70;;;17.60;44.00;;;;;;5035946;28;20018;-59
2021/11/30 04:02:56;;;;;;;2.08;0.60;;;17.70;43.80;;;;;;5036409;28;20025;-59
2021/11/30 04:05:23;;;;;;;0.80;0.60;;;17.80;43.70;;;;;;5035814;28;20045;-59
2021/11/30 04:07:49;;;;;;;2.08;1.10;;;17.90;43.60;;;;;;5035713;28;20018;-58
2021/11/30 04:10:14;;;;;;;1.05;0.70;;;18.00;43.40;;;;;;5035724;28;20071;-59
2021/11/30 04:12:41;;;;;;;1.48;0.93;;;18.10;43.30;;;;;;5035731;28;20064;-59
2021/11/30 04:15:09;;;;;;;1.13;0.60;;;18.20;43.20;;;;;;5035773;28;20025;-59
2021/11/30 04:17:39;;;;;;;1.15;0.52;;;18.20;43.00;;;;;;5036339;28;20090;-58
2021/11/30 04:20:06;;;;;;;1.45;0.70;;;18.30;43.00;;;;;;5036481;28;20021;-59
2021/11/30 04:22:33;;;;;;;1.13;0.65;;;18.40;42.70;;;;;;5036397;28;20029;-59
2021/11/30 04:24:59;;;;;;;0.73;0.63;;;18.50;42.60;;;;;;5035987;28;20021;-59
2021/11/30 04:27:25;;;;;;;0.60;0.57;;;18.50;42.40;;;;;;5036106;28;20021;-58
2021/11/30 04:29:53;;;;;;;1.38;0.68;;;18.60;42.30;;;;;;5036070;28;20033;-59
2021/11/30 04:32:19;;;;;;;1.65;0.73;;;18.70;42.10;;;;;;5035591;28;20039;-59
2021/11/30 04:34:44;;;;;;;1.48;0.70;;;18.80;42.00;;;;;;5035823;28;20092;-59
2021/11/30 04:37:11;;;;;;;0.82;0.65;;;18.90;41.90;;;;;;5036309;28;20105;-58
2021/11/30 04:39:37;;;;;;;1.33;0.52;;;18.90;41.80;;;;;;5018508;28;20035;-59
2021/11/30 04:42:03;;;;;;;1.80;0.80;;;19.00;41.80;;;;;;5036701;28;20084;-59
2021/11/30 04:44:31;;;;;;;0.93;0.70;;;19.10;41.70;;;;;;5036473;28;20536;-59
2021/11/30 04:47:02;;;;;;;1.30;0.52;;;19.20;41.60;;;;;;5018858;28;20466;-59
2021/11/30 04:51:54;;;;;;;0.98;0.52;;;19.30;41.50;;;;;;5038742;28;20297;-61
2021/11/30 04:54:42;;;;;;;1.25;0.82;;;19.30;41.30;;;;;;5024118;28;20034;-59
2021/11/30 04:57:26;;;;;;;1.17;0.70;;;19.40;41.30;;;;;;5038069;28;20022;-59
2021/11/30 05:00:12;;;;;;;2.38;0.77;;;19.50;41.10;;;;;;5036942;28;20075;-59
2021/11/30 05:02:40;;;;;;;1.17;0.63;;;19.60;41.10;;;;;;5040512;28;20017;-59
2021/11/30 05:05:26;;;;;;;0.98;0.60;;;19.60;41.00;;;;;;5023369;28;20548;-59
2021/11/30 05:08:12;;;;;;;1.50;0.70;;;19.70;40.90;;;;;;5034928;28;20119;-59
2021/11/30 05:10:57;;;;;;;0.40;0.38;;;19.80;40.80;;;;;;5034276;28;20106;-59
2021/11/30 05:13:23;;;;;;;0.98;0.60;;;19.80;40.70;;;;;;5034422;28;20452;-59
2021/11/30 05:15:49;;;;;;;0.82;0.50;;;19.90;40.60;;;;;;5034758;28;20021;-59
2021/11/30 05:18:15;;;;;;;0.80;0.70;;;19.90;40.60;;;;;;5034427;28;20021;-59
2021/11/30 05:20:45;;;;;;;1.10;0.60;;;20.00;40.50;;;;;;5034201;28;20017;-58
2021/11/30 05:23:16;;;;;;;1.30;0.70;;;20.10;40.50;;;;;;5033947;28;20021;-59
2021/11/30 05:25:43;;;;;;;1.35;0.70;;;20.10;40.40;;;;;;5034383;28;20101;-59
2021/11/30 05:28:10;;;;;;;0.40;0.40;;;20.20;40.30;;;;;;5034507;28;20052;-58
2021/11/30 05:30:36;;;;;;;1.15;0.60;;;20.30;40.30;;;;;;5034411;28;20064;-59
2021/11/30 05:33:06;;;;;;;0.77;0.70;;;20.30;40.30;;;;;;5016576;28;20029;-58
2021/11/30 05:35:32;;;;;;;0.60;0.60;;;20.40;40.20;;;;;;4999912;28;20014;-58
2021/11/30 05:37:57;;;;;;;1.35;0.60;;;20.40;40.10;;;;;;5034109;28;20043;-58
2021/11/30 05:40:24;;;;;;;1.15;0.73;;;20.50;40.10;;;;;;5034154;28;20105;-58
2021/11/30 05:42:50;;;;;;;0.88;0.55;;;20.50;40.00;;;;;;5016246;28;20053;-59
2021/11/30 05:45:16;;;;;;;0.88;0.65;;;20.60;40.00;;;;;;5016252;28;20116;-58
2021/11/30 05:47:42;;;;;;;0.93;0.45;;;20.60;39.90;;;;;;5016039;28;20062;-59
2021/11/30 05:50:08;;;;;;;0.70;0.50;;;20.70;39.90;;;;;;5016237;28;20056;-58
2021/11/30 05:52:34;;;;;;;0.60;0.50;;;20.70;39.80;;;;;;5016168;28;20033;-58
2021/11/30 05:54:59;;;;;;;2.50;0.70;;;20.80;39.80;;;;;;5016318;28;20033;-58
2021/11/30 05:57:27;;;;;;;0.95;0.55;;;20.80;39.70;;;;;;5016430;28;20100;-59
2021/11/30 05:59:53;;;;;;;0.55;0.50;;;20.90;39.80;;;;;;5033864;28;20140;-58
2021/11/30 06:02:21;;;;;;;1.05;0.70;;;20.90;39.80;;;;;;5033903;28;20453;-58
2021/11/30 06:04:49;;;;;;;1.55;0.70;;;20.90;39.70;;;;;;5033747;28;20049;-59
2021/11/30 06:07:15;;;;;;;1.15;0.65;;;21.00;39.70;;;;;;5033930;28;20359;-60
2021/11/30 06:09:42;;;;;;;0.68;0.50;;;21.00;39.70;;;;;;5033391;28;20028;-59
2021/11/30 06:12:10;;;;;;;0.93;0.60;;;21.10;39.60;;;;;;5033186;28;20116;-58
2021/11/30 06:14:36;;;;;;;0.38;0.32;;;21.10;39.60;;;;;;5016124;28;20020;-59
2021/11/30 06:17:02;;;;;;;0.70;0.63;;;21.10;39.60;;;;;;5015809;28;20017;-59
2021/11/30 06:19:28;;;;;;;0.40;0.40;;;21.10;39.60;;;;;;5033625;28;20021;-59
2021/11/30 06:21:54;;;;;;;0.80;0.57;;;21.20;39.60;;;;;;5015465;28;20033;-59
2021/11/30 06:24:20;;;;;;;1.08;0.50;;;21.20;39.70;;;;;;5015716;28;20006;-59
2021/11/30 06:26:49;;;;;;;0.77;0.60;;;21.20;39.60;;;;;;5033275;28;20018;-59
2021/11/30 06:29:17;;;;;;;0.82;0.52;;;21.30;39.60;;;;;;5033221;28;20021;-59
2021/11/30 06:31:44;;;;;;;1.05;0.60;;;21.30;39.60;;;;;;5032972;28;20470;-59
2021/11/30 06:34:09;;;;;;;0.77;0.50;;;21.30;39.60;;;;;;5015559;28;20021;-59
2021/11/30 06:36:36;;;;;;;1.30;0.60;;;21.40;39.60;;;;;;5033351;28;20013;-59
2021/11/30 06:39:03;;;;;;;0.52;0.40;;;21.40;39.60;;;;;;5033233;28;20021;-59
2021/11/30 06:41:28;;;;;;;0.80;0.60;;;21.30;39.60;;;;;;5033013;28;20146;-59
2021/11/30 06:43:55;;;;;;;0.88;0.60;;;21.40;39.60;;;;;;5015537;28;20593;-60
2021/11/30 06:46:21;;;;;;;1.10;0.50;;;21.40;39.60;;;;;;5015385;28;20100;-58
2021/11/30 06:48:47;;;;;;;0.93;0.68;;;21.40;39.60;;;;;;5015691;28;20042;-59
2021/11/30 06:51:14;;;;;;;0.68;0.55;;;21.50;39.70;;;;;;5033397;28;20017;-60
2021/11/30 06:53:40;;;;;;;1.27;0.77;;;21.50;39.60;;;;;;5033600;28;20091;-59
2021/11/30 06:56:06;;;;;;;0.60;0.40;;;21.50;39.60;;;;;;5014990;28;20045;-59
2021/11/30 06:58:32;;;;;;;0.70;0.45;;;21.50;39.60;;;;;;5032955;28;20018;-59
2021/11/30 07:00:58;;;;;;;0.63;0.55;;;21.60;39.70;;;;;;5033554;28;20032;-59
2021/11/30 07:03:25;;;;;;;0.75;0.55;;;21.60;39.60;;;;;;5032418;28;20045;-60
2021/11/30 07:06:11;;;;;;;1.15;0.65;;;21.60;39.70;;;;;;5014663;28;20104;-60
2021/11/30 07:12:10;;;;;;;0.38;0.28;;;21.60;39.70;;;;;;5032662;28;20513;-59
2021/11/30 07:14:07;;;;;;;0.85;0.52;;;21.60;39.70;;;;;;5018287;28;20017;-60
2021/11/30 07:16:45;;;;;;;1.30;0.63;;;21.60;39.70;;;;;;5000601;28;20072;-60
2021/11/30 07:19:11;;;;;;;0.80;0.50;;;21.70;39.80;;;;;;5032020;28;20109;-59
2021/11/30 07:21:37;;;;;;;0.80;0.43;;;21.70;39.80;;;;;;5013462;28;20381;-59
2021/11/30 07:24:06;;;;;;;0.60;0.57;;;21.70;39.80;;;;;;5015865;28;20029;-58
2021/11/30 07:26:32;;;;;;;1.00;0.50;;;21.70;39.80;;;;;;5018121;28;20124;-59
2021/11/30 07:28:59;;;;;;;0.55;0.50;;;21.70;39.80;;;;;;5034714;28;20104;-59
2021/11/30 07:31:27;;;;;;;0.60;0.40;;;21.70;39.80;;;;;;5016399;28;20109;-58
2021/11/30 07:33:53;;;;;;;0.55;0.50;;;21.70;39.80;;;;;;5017187;28;20032;-58
2021/11/30 07:36:22;;;;;;;1.13;0.50;;;21.80;39.90;;;;;;5016809;28;20018;-59
2021/11/30 07:38:49;;;;;;;0.40;0.40;;;21.80;39.90;;;;;;5015384;28;20029;-59
2021/11/30 07:41:15;;;;;;;0.88;0.60;;;21.80;39.90;;;;;;5016261;28;20014;-59
2021/11/30 07:43:41;;;;;;;0.57;0.40;;;21.80;39.90;;;;;;5034188;28;20495;-63
2021/11/30 07:46:08;;;;;;;1.92;0.70;;;21.80;39.90;;;;;;5034218;28;20029;-57
2021/11/30 07:48:34;;;;;;;0.75;0.40;;;21.90;40.00;;;;;;5016644;28;20052;-59
2021/11/30 07:51:00;;;;;;;0.40;0.30;;;21.90;40.00;;;;;;5034368;28;20350;-59
2021/11/30 07:53:26;;;;;;;0.82;0.45;;;21.90;40.00;;;;;;5016210;28;20021;-59
2021/11/30 07:55:55;;;;;;;0.85;0.50;;;21.90;40.00;;;;;;5015753;28;20044;-59
2021/11/30 07:58:22;;;;;;;0.93;0.40;;;21.90;40.00;;;;;;5033659;28;20462;-60
2021/11/30 08:00:49;;;;;;;0.70;0.50;;;22.00;40.10;;;;;;5016136;28;20182;-59
2021/11/30 08:03:16;;;;;;;0.85;0.40;;;22.00;40.10;;;;;;5016127;28;20009;-59
2021/11/30 08:05:46;;;;;;;1.08;0.50;;;22.00;40.10;;;;;;5015891;28;20052;-63
2021/11/30 08:08:11;;;;;;;0.60;0.50;;;22.00;40.10;;;;;;5033822;28;20040;-60
2021/11/30 08:10:38;;;;;;;2.13;0.52;;;22.00;40.10;;;;;;5033722;28;20025;-62
2021/11/30 08:13:04;;;;;;;2.28;0.70;;;22.00;40.10;;;;;;5016832;28;20022;-59
2021/11/30 08:15:30;;;;;;;3.75;0.77;;;22.10;40.20;;;;;;5017175;28;20068;-59
2021/11/30 08:18:01;;;;;;;7.32;1.02;;;22.00;41.30;;;;;;4984275;28;20013;-59
2021/11/30 08:20:30;;;;;;;12.25;1.67;;;22.10;42.30;;;;;;5017940;28;20109;-63
2021/11/30 08:22:56;;;;;;;12.27;1.55;;;22.00;43.60;;;;;;5034753;28;20462;-58
2021/11/30 08:25:22;;;;;;;8.90;1.63;;;22.00;44.90;;;;;;5001120;28;20037;-58
2021/11/30 08:27:48;;;;;;;8.65;1.40;;;22.00;45.30;;;;;;5035108;28;20029;-58
2021/11/30 08:30:15;;;;;;;14.30;1.90;;;22.10;45.60;;;;;;5035183;28;20041;-59
2021/11/30 08:32:41;;;;;;;14.38;2.28;;;22.10;46.10;;;;;;5017517;28;20762;-60
2021/11/30 08:35:08;;;;;;;11.05;2.22;;;22.10;46.40;;;;;;5017620;28;20006;-59
2021/11/30 08:37:34;;;;;;;10.80;2.53;;;22.10;46.50;;;;;;5016890;28;20037;-59
2021/11/30 08:40:00;;;;;;;20.60;2.25;;;22.10;46.60;;;;;;5017283;28;20463;-59
2021/11/30 08:42:26;;;;;;;14.10;3.03;;;22.20;46.70;;;;;;5017190;28;20021;-59
2021/11/30 08:44:52;;;;;;;10.15;1.98;;;22.20;46.70;;;;;;5016964;28;20013;-59
2021/11/30 08:47:19;;;;;;;18.55;2.42;;;22.20;46.50;;;;;;5034828;28;20021;-59
2021/11/30 08:49:45;;;;;;;9.15;2.25;;;22.30;46.50;;;;;;5034587;28;20012;-59
2021/11/30 08:52:14;;;;;;;5.88;1.88;;;22.30;46.60;;;;;;5015978;28;20105;-59
2021/11/30 08:54:40;;;;;;;15.00;2.03;;;22.30;46.40;;;;;;5033940;28;20016;-59
2021/11/30 08:57:08;;;;;;;10.68;2.17;;;22.30;46.80;;;;;;4999904;28;20028;-59
2021/11/30 08:59:35;;;;;;;9.32;2.08;;;22.20;46.40;;;;;;5016406;28;20013;-60
2021/11/30 09:02:01;;;;;;;11.30;2.17;;;22.20;46.30;;;;;;5034084;28;20075;-59
2021/11/30 09:04:27;;;;;;;7.57;2.33;;;22.20;46.40;;;;;;5034169;28;20049;-60
2021/11/30 09:06:53;;;;;;;12.45;2.42;;;22.20;47.10;;;;;;5016877;28;20470;-59
2021/11/30 09:09:19;;;;;;;8.55;2.53;;;22.10;47.00;;;;;;5017055;28;20105;-60
2021/11/30 09:11:46;;;;;;;11.70;2.35;;;21.70;46.10;;;;;;5034983;28;20048;-60
2021/11/30 09:14:15;;;;;;;9.55;2.90;;;21.40;47.00;;;;;;5034483;28;20025;-60
2021/11/30 09:16:44;;;;;;;7.80;2.55;;;21.00;47.30;;;;;;5034058;28;20473;-60
2021/11/30 09:19:10;;;;;;;7.40;2.72;;;20.80;47.00;;;;;;5033852;28;20489;-58
2021/11/30 09:21:36;;;;;;;8.35;2.90;;;20.20;48.00;;;;;;4999231;28;20013;-57
2021/11/30 09:24:02;;;;;;;16.13;3.15;;;20.10;50.10;;;;;;5032957;28;20075;-60
2021/11/30 09:26:28;;;;;;;11.32;3.13;;;20.30;50.80;;;;;;5033740;28;20096;-61
2021/11/30 09:28:54;;;;;;;9.40;2.47;;;20.60;50.40;;;;;;5033427;28;20446;-59
2021/11/30 09:31:20;;;;;;;7.72;2.72;;;20.80;50.30;;;;;;5033151;28;20108;-60
2021/11/30 09:33:47;;;;;;;10.93;2.30;;;20.90;49.90;;;;;;5033165;28;20045;-58
2021/11/30 09:36:13;;;;;;;7.93;2.35;;;21.00;50.30;;;;;;4999374;28;20025;-59
2021/11/30 09:38:39;;;;;;;8.50;2.38;;;21.20;50.30;;;;;;5033188;28;20545;-58
2021/11/30 09:41:05;;;;;;;7.32;2.83;;;21.30;50.00;;;;;;5015814;28;20033;-59
2021/11/30 09:43:36;;;;;;;6.97;1.92;;;21.40;50.20;;;;;;4999223;28;20060;-59
2021/11/30 09:46:02;;;;;;;6.03;2.10;;;21.40;49.80;;;;;;5014786;28;20031;-59
2021/11/30 09:48:28;;;;;;;10.20;2.55;;;21.50;50.10;;;;;;5033030;28;20470;-58
2021/11/30 09:50:54;;;;;;;9.85;2.45;;;21.50;49.80;;;;;;5015223;28;20033;-60
2021/11/30 09:53:21;;;;;;;27.52;2.40;;;21.50;50.50;;;;;;5014848;28;20013;-59
2021/11/30 09:55:47;;;;;;;10.77;2.40;;;21.60;50.10;;;;;;5032357;28;20013;-59
2021/11/30 09:58:14;;;;;;;7.28;2.30;;;21.60;50.70;;;;;;5015099;28;20017;-58
2021/11/30 10:00:40;;;;;;;12.85;2.83;;;21.70;50.20;;;;;;5032677;28;20063;-58
2021/11/30 10:03:06;;;;;;;12.00;2.58;;;21.80;50.10;;;;;;5015992;28;20018;-56
2021/11/30 10:05:32;;;;;;;9.95;2.55;;;21.70;49.90;;;;;;4998443;28;20045;-59
2021/11/30 10:08:01;;;;;;;8.48;2.58;;;21.80;50.00;;;;;;5032667;28;20025;-56
2021/11/30 10:10:37;;;;;;;5.97;2.15;;;20.10;48.00;;;;;;5014765;28;20093;-57
2021/11/30 10:13:05;;;;;;;9.68;2.92;;;17.10;53.60;;;;;;5014783;28;20084;-59
2021/11/30 10:15:46;;;;;;;7.50;2.47;;;15.70;58.60;;;;;;5031722;28;20068;-59
2021/11/30 10:18:32;;;;;;;8.35;2.45;;;15.10;61.40;;;;;;5045154;23;20033;-80
2021/11/30 10:21:20;;;;;;;5.60;2.70;;;14.60;62.70;;;;;;5023614;28;20038;-82
2021/11/30 10:24:16;;;;;;;7.47;2.58;;;14.30;64.10;;;;;;5023718;28;20099;-80
2021/11/30 10:26:57;;;;;;;5.93;2.47;;;14.00;65.30;;;;;;5023024;28;20465;-80
2021/11/30 10:29:23;;;;;;;7.25;2.85;;;13.80;66.10;;;;;;5008314;28;20026;-79
2021/11/30 10:31:55;;;;;;;6.78;2.58;;;13.80;66.40;;;;;;5004873;28;20026;-81
2021/11/30 10:34:40;;;;;;;7.40;2.42;;;13.90;66.60;;;;;;5021919;28;20025;-86
2021/11/30 10:37:06;;;;;;;5.00;2.85;;;13.80;66.20;;;;;;4967702;28;20058;-80
2021/11/30 10:39:39;;;;;;;6.63;3.10;;;13.60;66.80;;;;;;4966944;28;20030;-78
2021/11/30 10:42:19;;;;;;;7.93;3.22;;;13.50;67.10;;;;;;4967688;28;20058;-79
2021/11/30 10:44:47;;;;;;;5.90;2.92;;;13.50;67.60;;;;;;4934755;28;20130;-83
2021/11/30 10:47:36;;;;;;;9.75;2.78;;;13.40;67.70;;;;;;4949917;28;20031;-80
2021/11/30 10:50:14;;;;;;;6.80;2.97;;;13.40;68.00;;;;;;4951757;28;20043;-82
2021/11/30 10:52:44;;;;;;;9.55;3.17;;;13.40;68.20;;;;;;4963886;28;20039;-79
2021/11/30 10:55:18;;;;;;;8.57;2.95;;;13.40;68.30;;;;;;4948648;28;20051;-78
2021/11/30 10:58:06;;;;;;;10.43;3.10;;;13.50;68.30;;;;;;4911905;29;20510;-83
2021/11/30 11:00:33;;;;;;;9.15;3.20;;;13.20;68.80;;;;;;4946374;29;20032;-83
2021/11/30 11:03:01;;;;;;;8.10;3.00;;;13.00;69.70;;;;;;4929768;29;20110;-80
2021/11/30 11:05:36;;;;;;;9.38;3.53;;;13.00;69.60;;;;;;4931129;29;20035;-83
2021/11/30 11:08:19;;;;;;;8.27;3.28;;;13.00;69.50;;;;;;4910925;29;20075;-73
2021/11/30 11:10:46;;;;;;;9.35;3.15;;;12.80;70.60;;;;;;4922959;29;20059;-72
2021/11/30 11:13:30;;;;;;;5.82;3.05;;;12.90;70.90;;;;;;4938453;29;20488;-75
2021/11/30 11:16:04;;;;;;;7.38;3.47;;;12.90;70.70;;;;;;4922741;29;20026;-73
2021/11/30 11:18:37;;;;;;;9.23;3.30;;;12.70;70.90;;;;;;4924275;29;20107;-76
2021/11/30 11:21:29;;;;;;;9.13;3.20;;;12.60;71.30;;;;;;4908720;29;20034;-75
2021/11/30 11:24:12;;;;;;;10.13;3.33;;;12.60;71.90;;;;;;4924832;29;20040;-77
2021/11/30 11:26:42;;;;;;;7.47;3.25;;;12.90;70.80;;;;;;4918350;28;20121;-75
2021/11/30 11:29:10;;;;;;;8.50;3.53;;;12.90;71.00;;;;;;4990738;28;20048;-74
2021/11/30 11:31:37;;;;;;;8.93;2.80;;;12.60;72.00;;;;;;5019483;28;20401;-75
2021/11/30 11:34:03;;;;;;;5.03;2.42;;;13.80;69.30;;;;;;4986707;28;20474;-75
2021/11/30 11:36:29;;;;;;;6.05;1.90;;;14.90;65.10;;;;;;5003333;28;20022;-75
2021/11/30 11:39:05;;;;;;;4.72;1.90;;;15.80;61.80;;;;;;5020759;28;20030;-75
2021/11/30 11:41:31;;;;;;;4.75;2.30;;;16.30;59.50;;;;;;4991368;28;20125;-75
2021/11/30 11:44:07;;;;;;;2.65;1.45;;;16.70;58.10;;;;;;5006159;28;20053;-74
2021/11/30 11:46:36;;;;;;;4.45;2.15;;;17.00;57.00;;;;;;5022979;28;20046;-76
2021/11/30 11:49:09;;;;;;;6.90;2.58;;;15.80;59.10;;;;;;4995381;28;20037;-78
2021/11/30 11:52:05;;;;;;;7.15;2.67;;;14.30;65.50;;;;;;5025099;28;20030;-73
2021/11/30 11:54:35;;;;;;;7.53;2.95;;;15.00;64.90;;;;;;5027584;28;20060;-75
2021/11/30 11:57:08;;;;;;;6.97;2.50;;;15.60;62.90;;;;;;4993946;28;20037;-74
2021/11/30 11:59:44;;;;;;;9.35;2.85;;;15.70;62.40;;;;;;5031753;28;20085;-78
2021/11/30 12:02:29;;;;;;;6.35;2.50;;;15.90;61.80;;;;;;5014372;28;20018;-78
2021/11/30 12:05:01;;;;;;;8.23;2.40;;;16.10;61.10;;;;;;5010389;28;20049;-74
2021/11/30 12:08:03;;;;;;;6.20;2.75;;;16.00;61.50;;;;;;5004972;28;20109;-73
2021/11/30 12:10:30;;;;;;;3.60;2.45;;;16.20;61.20;;;;;;4918739;29;20028;-74
2021/11/30 12:13:19;;;;;;;5.10;2.47;;;16.20;61.40;;;;;;4951615;29;20039;-76
2021/11/30 12:16:09;;;;;;;5.63;2.45;;;16.60;60.20;;;;;;4935453;29;20106;-77
2021/11/30 12:18:43;;;;;;;4.63;2.10;;;16.60;59.90;;;;;;4921970;29;20112;-75
2021/11/30 12:21:30;;;;;;;8.88;2.40;;;16.80;59.40;;;;;;4918218;29;20119;-76
2021/11/30 12:24:00;;;;;;;5.93;2.05;;;16.80;59.70;;;;;;4921603;29;20416;-77
2021/11/30 12:26:33;;;;;;;6.35;2.30;;;16.70;60.10;;;;;;4916216;29;20179;-76
2021/11/30 12:29:02;;;;;;;4.93;2.20;;;16.50;60.50;;;;;;4931444;29;20043;-75
2021/11/30 12:31:33;;;;;;;5.88;2.15;;;16.50;60.80;;;;;;4915901;29;20040;-76
2021/11/30 12:34:02;;;;;;;8.07;1.95;;;16.40;61.60;;;;;;4915028;29;20462;-78
2021/11/30 12:36:38;;;;;;;3.92;2.20;;;16.50;61.20;;;;;;4918812;29;20028;-80
2021/11/30 12:39:19;;;;;;;5.60;2.10;;;16.60;60.70;;;;;;4922779;29;20079;-79
2021/11/30 12:41:50;;;;;;;12.57;2.45;;;16.80;60.00;;;;;;4988648;23;20073;-60
2021/11/30 12:44:19;;;;;;;6.80;2.10;;;16.90;60.10;;;;;;5014863;28;20129;-59
2021/11/30 12:46:51;;;;;;;6.30;1.92;;;16.70;61.00;;;;;;5015161;28;20433;-59
2021/11/30 12:49:23;;;;;;;4.45;1.75;;;16.90;60.50;;;;;;5015223;28;20112;-59
2021/11/30 12:52:03;;;;;;;7.93;1.98;;;17.00;60.30;;;;;;5014782;28;20044;-58
2021/11/30 12:54:29;;;;;;;4.32;2.15;;;17.10;60.20;;;;;;5015666;28;20093;-59
2021/11/30 12:56:55;;;;;;;6.18;2.10;;;16.90;59.80;;;;;;5014979;28;20529;-58
2021/11/30 12:59:42;;;;;;;12.02;2.30;;;16.90;60.20;;;;;;5015128;28;20063;-59
2021/11/30 13:02:25;;;;;;;7.95;2.00;;;16.90;59.90;;;;;;5002955;28;20099;-58
2021/11/30 13:05:06;;;;;;;4.43;1.70;;;17.20;59.50;;;;;;5014378;28;20067;-57
2021/11/30 13:07:33;;;;;;;4.80;1.75;;;17.20;59.00;;;;;;5013097;28;20022;-58